Time;durP1;ratioP1;P1;durP2;ratioP2;P2;SDS_P1;SDS_P2;PMS_P1;PMS_P2;Temp;Humidity;BMP_temperature;BMP_pressure;BME280_temperature;BME280_humidity;BME280_pressure;Samples;Min_cycle;Max_cycle;Signal;HPM_P1;HPM_P2
2023/05/04 00:00:01;;;;;;;16.63;5.22;;;;;;;10.50;59.25;100556.94;5058664;28;20488;-74
2023/05/04 00:02:26;;;;;;;9.45;5.28;;;;;;;10.47;59.40;100558.22;5058639;28;20513;-75
2023/05/04 00:04:52;;;;;;;8.05;4.20;;;;;;;10.38;59.72;100554.22;5058115;28;20086;-75
2023/05/04 00:07:18;;;;;;;10.00;4.72;;;;;;;10.30;60.45;100547.28;5059022;28;20032;-74
2023/05/04 00:09:43;;;;;;;9.48;4.80;;;;;;;10.32;60.07;100549.75;5059167;28;20030;-75
2023/05/04 00:12:09;;;;;;;13.03;4.53;;;;;;;10.25;60.46;100547.19;5057135;28;20110;-74
2023/05/04 00:14:35;;;;;;;15.95;5.32;;;;;;;10.23;60.71;100541.16;5058816;28;20304;-75
2023/05/04 00:17:03;;;;;;;6.88;4.55;;;;;;;10.11;60.94;100542.00;5059611;28;20048;-75
2023/05/04 00:19:29;;;;;;;10.10;5.30;;;;;;;10.13;60.66;100537.13;5062706;28;20460;-75
2023/05/04 00:21:54;;;;;;;10.80;5.33;;;;;;;10.04;61.11;100546.78;5062545;28;20040;-74
2023/05/04 00:24:19;;;;;;;15.48;5.05;;;;;;;10.02;60.74;100547.03;5061262;28;20302;-75
2023/05/04 00:26:45;;;;;;;9.85;4.57;;;;;;;10.02;61.06;100548.91;5062257;28;20485;-75
2023/05/04 00:29:10;;;;;;;17.83;5.23;;;;;;;9.95;61.04;100551.78;5061583;28;20108;-75
2023/05/04 00:31:35;;;;;;;11.67;4.23;;;;;;;9.98;61.54;100534.13;5061821;28;21074;-75
2023/05/04 00:34:00;;;;;;;11.97;4.37;;;;;;;9.89;61.79;100534.50;5061421;28;20352;-74
2023/05/04 00:36:26;;;;;;;10.07;4.77;;;;;;;9.89;61.78;100529.06;5061610;28;20281;-75
2023/05/04 00:38:53;;;;;;;11.30;4.90;;;;;;;9.85;62.04;100536.06;5061116;28;20272;-75
2023/05/04 00:41:20;;;;;;;10.73;4.57;;;;;;;9.75;62.80;100531.22;5061469;28;20290;-75
2023/05/04 00:43:46;;;;;;;11.63;4.88;;;;;;;9.79;62.46;100532.41;5061522;28;20085;-75
2023/05/04 00:46:12;;;;;;;14.63;5.32;;;;;;;9.74;62.38;100531.47;5061111;28;20063;-75
2023/05/04 00:48:39;;;;;;;9.18;4.80;;;;;;;9.69;62.73;100524.84;5061667;28;20261;-74
2023/05/04 00:51:06;;;;;;;13.50;6.15;;;;;;;9.73;62.70;100516.19;5061183;28;20475;-75
2023/05/04 00:53:32;;;;;;;9.70;5.18;;;;;;;9.65;62.43;100520.13;5062318;28;20113;-74
2023/05/04 00:55:57;;;;;;;9.18;4.93;;;;;;;9.57;63.30;100516.72;5060346;28;20695;-74
2023/05/04 00:58:23;;;;;;;14.90;6.47;;;;;;;9.63;63.37;100508.63;5061074;28;20044;-75
2023/05/04 01:00:49;;;;;;;8.77;4.78;;;;;;;9.63;63.00;100519.53;5061840;28;20025;-74
2023/05/04 01:03:14;;;;;;;9.90;4.75;;;;;;;9.57;63.05;100511.25;5060286;28;20046;-75
2023/05/04 01:05:52;;;;;;;10.98;5.28;;;;;;;9.54;62.95;100510.91;5061131;28;20041;-75
2023/05/04 01:08:26;;;;;;;10.73;5.65;;;;;;;9.49;63.66;100505.34;5060785;28;20029;-75
2023/05/04 01:10:58;;;;;;;14.40;6.68;;;;;;;9.42;63.74;100506.31;5060727;28;20114;-74
2023/05/04 01:13:24;;;;;;;14.55;6.88;;;;;;;9.37;64.06;100500.75;5060868;28;20040;-75
2023/05/04 01:15:50;;;;;;;8.57;5.28;;;;;;;9.33;64.21;100502.31;5061068;28;20033;-75
2023/05/04 01:18:16;;;;;;;10.75;5.38;;;;;;;9.32;63.78;100503.34;5060955;28;20032;-74
2023/05/04 01:20:41;;;;;;;12.00;5.55;;;;;;;9.36;64.14;100501.81;5060898;28;20072;-75
2023/05/04 01:23:08;;;;;;;9.18;5.45;;;;;;;9.19;64.40;100501.72;5062077;28;20032;-75
2023/05/04 01:25:43;;;;;;;18.00;5.38;;;;;;;9.11;64.81;100501.00;5060238;28;20045;-75
2023/05/04 01:28:18;;;;;;;8.32;4.45;;;;;;;8.96;65.31;100506.09;5060517;28;20028;-75
2023/05/04 01:30:47;;;;;;;8.50;4.70;;;;;;;8.84;65.97;100496.03;5061389;28;20033;-75
2023/05/04 01:33:13;;;;;;;11.98;5.90;;;;;;;8.81;66.19;100501.94;5060860;28;20047;-74
2023/05/04 01:35:38;;;;;;;21.13;7.55;;;;;;;8.75;66.08;100502.88;5060638;28;20032;-74
2023/05/04 01:38:04;;;;;;;13.07;6.88;;;;;;;8.70;66.58;100494.59;5060371;28;20024;-74
2023/05/04 01:40:29;;;;;;;10.55;5.55;;;;;;;8.78;66.51;100491.53;5060506;28;20072;-74
2023/05/04 01:42:54;;;;;;;8.87;5.10;;;;;;;8.94;65.79;100495.44;5061054;28;20060;-75
2023/05/04 01:45:20;;;;;;;11.97;5.10;;;;;;;9.02;65.53;100498.88;5060050;28;20939;-75
2023/05/04 01:47:45;;;;;;;12.55;6.20;;;;;;;9.11;64.90;100497.47;5061307;28;20428;-76
2023/05/04 01:50:11;;;;;;;18.30;6.07;;;;;;;9.01;65.28;100495.31;5060329;28;20073;-75
2023/05/04 01:52:36;;;;;;;9.53;5.37;;;;;;;8.98;65.34;100493.91;5060170;28;20034;-75
2023/05/04 01:55:01;;;;;;;12.87;6.07;;;;;;;9.06;65.20;100497.34;5059831;28;20272;-75
2023/05/04 01:57:26;;;;;;;9.67;4.83;;;;;;;9.06;65.09;100497.34;5060103;28;20293;-74
2023/05/04 01:59:52;;;;;;;10.90;5.45;;;;;;;9.11;64.97;100494.75;5060439;28;20265;-74
2023/05/04 02:02:17;;;;;;;18.45;6.00;;;;;;;9.22;64.93;100498.50;5059515;28;20048;-75
2023/05/04 02:04:42;;;;;;;11.70;6.00;;;;;;;9.22;64.78;100496.63;5060586;28;20033;-75
2023/05/04 02:07:07;;;;;;;14.95;5.90;;;;;;;9.26;64.60;100490.69;5060177;28;20032;-74
2023/05/04 02:09:34;;;;;;;14.63;5.70;;;;;;;9.29;64.82;100487.53;5061273;28;20546;-75
2023/05/04 02:11:59;;;;;;;13.43;5.70;;;;;;;9.38;64.53;100483.34;5060008;28;21263;-75
2023/05/04 02:14:24;;;;;;;11.27;6.20;;;;;;;9.27;64.73;100485.03;5060605;28;20044;-75
2023/05/04 02:16:50;;;;;;;14.98;6.93;;;;;;;9.35;64.76;100486.56;5059833;28;20032;-75
2023/05/04 02:19:15;;;;;;;10.57;4.88;;;;;;;9.33;64.79;100480.53;5059809;28;20683;-75
2023/05/04 02:21:43;;;;;;;10.20;5.43;;;;;;;9.37;64.42;100479.00;5060077;28;20067;-75
2023/05/04 02:24:08;;;;;;;10.65;5.38;;;;;;;9.32;64.44;100484.31;5058864;28;20280;-75
2023/05/04 02:26:35;;;;;;;10.32;5.85;;;;;;;9.28;64.64;100473.06;5059759;28;20151;-75
2023/05/04 02:29:02;;;;;;;12.43;6.47;;;;;;;9.27;64.45;100473.31;5059098;28;20055;-75
2023/05/04 02:31:27;;;;;;;21.02;6.85;;;;;;;9.26;64.64;100479.81;5059683;28;20516;-75
2023/05/04 02:33:52;;;;;;;12.13;5.25;;;;;;;9.23;64.54;100471.06;5059358;28;20152;-75
2023/05/04 02:36:18;;;;;;;14.33;6.03;;;;;;;9.22;64.93;100476.75;5059712;28;20040;-75
2023/05/04 02:38:43;;;;;;;16.07;6.53;;;;;;;9.17;64.72;100477.44;5059338;28;20339;-75
2023/05/04 02:41:08;;;;;;;14.50;5.83;;;;;;;9.19;64.98;100475.31;5058926;28;20759;-74
2023/05/04 02:43:33;;;;;;;14.13;6.97;;;;;;;9.17;64.71;100474.72;5059285;28;20257;-75
2023/05/04 02:45:59;;;;;;;16.58;5.88;;;;;;;9.13;65.14;100470.03;5058600;28;20332;-75
2023/05/04 02:48:24;;;;;;;16.60;7.15;;;;;;;9.10;65.45;100472.16;5059201;28;20035;-76
2023/05/04 02:50:50;;;;;;;20.00;7.47;;;;;;;9.14;65.06;100480.66;5059350;28;20082;-75
2023/05/04 02:53:15;;;;;;;10.82;6.45;;;;;;;9.11;65.10;100475.72;5060210;28;20040;-76
2023/05/04 02:55:41;;;;;;;14.35;5.82;;;;;;;9.05;66.02;100469.31;5058384;28;20037;-76
2023/05/04 02:58:06;;;;;;;12.87;5.87;;;;;;;9.01;65.59;100478.19;5059429;28;20486;-76
2023/05/04 03:00:31;;;;;;;12.97;6.83;;;;;;;9.03;65.63;100470.63;5059327;28;20320;-76
2023/05/04 03:02:57;;;;;;;10.25;5.55;;;;;;;9.02;65.48;100471.69;5058806;28;20262;-76
2023/05/04 03:05:22;;;;;;;15.57;6.37;;;;;;;8.98;65.93;100471.31;5058558;28;20048;-76
2023/05/04 03:07:47;;;;;;;14.82;7.07;;;;;;;8.87;66.08;100467.53;5058847;28;20313;-76
2023/05/04 03:10:12;;;;;;;15.38;6.32;;;;;;;8.85;66.70;100461.50;5059361;28;20492;-76
2023/05/04 03:12:38;;;;;;;13.00;6.97;;;;;;;8.92;66.13;100467.66;5059163;28;20094;-76
2023/05/04 03:15:03;;;;;;;10.87;5.90;;;;;;;8.84;66.03;100465.28;5058808;28;20276;-76
2023/05/04 03:17:28;;;;;;;16.83;7.32;;;;;;;8.84;66.18;100474.28;5059017;28;20317;-76
2023/05/04 03:19:54;;;;;;;13.07;6.20;;;;;;;8.81;66.15;100468.47;5059131;28;20055;-76
2023/05/04 03:22:19;;;;;;;13.57;6.50;;;;;;;8.73;66.59;100461.50;5059484;28;20261;-76
2023/05/04 03:24:44;;;;;;;13.20;5.82;;;;;;;8.75;66.65;100464.81;5058369;28;20029;-76
2023/05/04 03:27:10;;;;;;;17.30;8.20;;;;;;;8.73;66.62;100453.34;5058432;28;20025;-75
2023/05/04 03:29:35;;;;;;;10.40;6.13;;;;;;;8.65;66.85;100443.66;5059451;28;20786;-76
2023/05/04 03:32:00;;;;;;;12.10;6.65;;;;;;;8.66;66.66;100453.47;5058769;28;20257;-76
2023/05/04 03:34:25;;;;;;;11.97;5.87;;;;;;;8.68;66.73;100454.06;5058513;28;20040;-76
2023/05/04 03:36:51;;;;;;;16.77;7.33;;;;;;;8.65;67.09;100446.38;5058990;28;20280;-76
2023/05/04 03:39:16;;;;;;;14.33;6.93;;;;;;;8.60;67.30;100446.25;5059344;28;20371;-76
2023/05/04 03:41:42;;;;;;;14.10;8.18;;;;;;;8.51;67.22;100437.56;5058289;28;20757;-75
2023/05/04 03:44:07;;;;;;;14.90;7.75;;;;;;;8.50;67.58;100442.16;5058244;28;20041;-75
2023/05/04 03:46:32;;;;;;;12.65;7.28;;;;;;;8.52;67.52;100440.06;5058909;28;20036;-76
2023/05/04 03:48:58;;;;;;;11.65;6.07;;;;;;;8.57;67.44;100438.56;5058569;28;20154;-75
2023/05/04 03:51:23;;;;;;;20.70;8.23;;;;;;;8.53;67.85;100436.28;5059659;28;20036;-76
2023/05/04 03:53:48;;;;;;;12.93;6.43;;;;;;;8.49;67.61;100429.66;5062665;28;20260;-76
2023/05/04 03:56:13;;;;;;;15.20;7.57;;;;;;;8.33;68.46;100422.19;5062471;28;20405;-75
2023/05/04 03:58:39;;;;;;;12.87;5.77;;;;;;;8.44;67.94;100434.16;5063389;28;20398;-76
2023/05/04 04:01:05;;;;;;;13.43;7.57;;;;;;;8.41;68.36;100430.84;5062819;28;20277;-76
2023/05/04 04:03:30;;;;;;;16.38;8.65;;;;;;;8.30;68.18;100428.91;5062848;28;20032;-76
2023/05/04 04:05:56;;;;;;;14.07;6.95;;;;;;;8.00;69.34;100427.91;5062213;28;20036;-75
2023/05/04 04:08:21;;;;;;;19.17;6.60;;;;;;;8.21;69.17;100428.44;5063247;28;20028;-75
2023/05/04 04:10:46;;;;;;;11.50;5.85;;;;;;;8.22;69.46;100430.06;5062434;28;20032;-75
2023/05/04 04:13:11;;;;;;;12.10;6.03;;;;;;;8.29;69.20;100429.97;5062365;28;20041;-76
2023/05/04 04:15:37;;;;;;;12.70;7.60;;;;;;;8.30;69.08;100442.50;5060545;28;20262;-75
2023/05/04 04:18:02;;;;;;;14.75;6.60;;;;;;;8.24;68.80;100438.00;5061491;28;20821;-75
2023/05/04 04:20:27;;;;;;;11.65;6.38;;;;;;;8.27;68.80;100437.53;5062779;28;21259;-75
2023/05/04 04:22:53;;;;;;;13.40;5.20;;;;;;;8.26;68.85;100441.28;5062459;28;20035;-76
2023/05/04 04:25:18;;;;;;;16.10;6.17;;;;;;;8.25;69.03;100434.22;5060745;28;20032;-76
2023/05/04 04:27:43;;;;;;;12.93;6.25;;;;;;;8.18;69.54;100445.19;5062292;28;20741;-76
2023/05/04 04:30:09;;;;;;;14.03;6.33;;;;;;;8.27;69.01;100437.53;5061476;28;20477;-76
2023/05/04 04:32:36;;;;;;;18.98;7.25;;;;;;;8.21;69.30;100439.31;5061636;28;20256;-76
2023/05/04 04:35:01;;;;;;;13.70;5.70;;;;;;;8.26;69.20;100428.56;5061516;28;20130;-76
2023/05/04 04:37:27;;;;;;;16.33;6.30;;;;;;;8.27;69.37;100432.94;5061108;28;20032;-76
2023/05/04 04:39:52;;;;;;;14.65;6.47;;;;;;;8.35;69.10;100436.38;5062253;28;20047;-76
2023/05/04 04:42:17;;;;;;;15.60;6.47;;;;;;;8.29;69.00;100428.09;5061583;28;20048;-76
2023/05/04 04:44:43;;;;;;;12.30;6.38;;;;;;;8.28;69.15;100428.31;5061854;28;20920;-76
2023/05/04 04:47:08;;;;;;;12.13;5.93;;;;;;;8.37;68.64;100432.38;5060818;28;20533;-76
2023/05/04 04:49:33;;;;;;;14.27;8.60;;;;;;;8.47;68.80;100434.50;5062117;28;20032;-76
2023/05/04 04:52:00;;;;;;;13.88;6.45;;;;;;;8.55;68.14;100427.06;5061705;28;21595;-76
2023/05/04 04:54:26;;;;;;;19.88;7.97;;;;;;;8.60;68.18;100430.75;5060130;28;20036;-76
2023/05/04 04:56:51;;;;;;;17.85;6.90;;;;;;;8.60;68.59;100435.38;5062105;28;20097;-76
2023/05/04 04:59:16;;;;;;;16.85;6.75;;;;;;;8.56;68.83;100431.44;5060801;28;20883;-76
2023/05/04 05:01:42;;;;;;;19.65;8.85;;;;;;;8.61;68.42;100437.84;5062315;28;20066;-76
2023/05/04 05:04:07;;;;;;;18.63;7.22;;;;;;;8.59;68.56;100434.53;5059054;28;20135;-76
2023/05/04 05:06:33;;;;;;;14.10;6.57;;;;;;;8.54;68.85;100431.69;5061405;28;20669;-76
2023/05/04 05:08:58;;;;;;;24.97;7.60;;;;;;;8.66;68.39;100431.72;5060758;28;20257;-75
2023/05/04 05:11:24;;;;;;;15.35;6.22;;;;;;;8.72;68.20;100433.50;5061220;28;20317;-76
2023/05/04 05:13:49;;;;;;;10.85;7.13;;;;;;;8.79;68.15;100427.94;5061120;28;20040;-75
2023/05/04 05:16:14;;;;;;;12.43;7.05;;;;;;;8.95;68.07;100422.84;5060961;28;20051;-76
2023/05/04 05:18:40;;;;;;;11.00;6.10;;;;;;;8.95;68.00;100420.94;5061520;28;20501;-76
2023/05/04 05:21:06;;;;;;;16.13;6.77;;;;;;;8.90;68.29;100428.16;5060983;28;20036;-76
2023/05/04 05:23:31;;;;;;;14.52;6.63;;;;;;;8.97;68.06;100431.59;5058880;28;20265;-76
2023/05/04 05:25:56;;;;;;;10.37;5.73;;;;;;;8.97;68.03;100428.88;5060391;28;21267;-76
2023/05/04 05:28:21;;;;;;;13.93;7.47;;;;;;;8.92;67.74;100431.47;5059811;28;20295;-76
2023/05/04 05:30:48;;;;;;;15.25;7.90;;;;;;;9.05;67.48;100430.41;5061476;28;20286;-76
2023/05/04 05:33:13;;;;;;;13.85;6.97;;;;;;;9.07;67.93;100422.84;5060248;28;20051;-76
2023/05/04 05:35:39;;;;;;;12.63;6.25;;;;;;;9.16;67.65;100424.13;5060659;28;20174;-76
2023/05/04 05:38:04;;;;;;;18.07;9.07;;;;;;;9.20;67.85;100424.47;5060328;28;20478;-76
2023/05/04 05:40:30;;;;;;;13.23;7.57;;;;;;;9.29;68.05;100414.03;5061615;28;20286;-76
2023/05/04 05:42:55;;;;;;;10.20;6.05;;;;;;;9.40;67.45;100426.78;5060060;28;20276;-76
2023/05/04 05:45:20;;;;;;;10.45;6.18;;;;;;;9.60;66.97;100422.81;5059732;28;20037;-76
2023/05/04 05:47:45;;;;;;;9.60;6.00;;;;;;;9.72;66.39;100416.53;5060684;28;21270;-76
2023/05/04 05:50:12;;;;;;;15.03;6.93;;;;;;;9.82;66.53;100416.72;5060469;28;20257;-76
2023/05/04 05:52:38;;;;;;;13.57;6.82;;;;;;;9.87;66.49;100405.91;5060972;28;20253;-75
2023/05/04 05:55:03;;;;;;;16.25;6.68;;;;;;;9.96;66.52;100403.63;5059741;28;20063;-76
2023/05/04 05:57:29;;;;;;;11.02;5.82;;;;;;;10.10;66.47;100409.59;5060111;28;20052;-76
2023/05/04 05:59:55;;;;;;;12.45;6.10;;;;;;;10.23;66.51;100404.91;5060562;28;20027;-76
2023/05/04 06:02:20;;;;;;;8.55;5.07;;;;;;;10.42;65.13;100401.91;5060189;28;20089;-76
2023/05/04 06:04:46;;;;;;;13.20;6.10;;;;;;;10.58;65.30;100400.28;5059673;28;20032;-76
2023/05/04 06:07:12;;;;;;;9.53;5.23;;;;;;;10.64;64.85;100391.09;5060147;28;20278;-76
2023/05/04 06:09:37;;;;;;;6.95;3.05;;;;;;;10.70;63.03;100387.38;5060753;28;20840;-76
2023/05/04 06:12:05;;;;;;;7.05;3.72;;;;;;;10.86;62.24;100385.69;5060338;28;20103;-76
2023/05/04 06:14:31;;;;;;;7.28;3.42;;;;;;;10.94;61.01;100386.34;5059334;28;20033;-76
2023/05/04 06:16:56;;;;;;;6.93;4.05;;;;;;;11.12;60.71;100389.84;5059247;28;20040;-75
2023/05/04 06:19:21;;;;;;;14.20;3.93;;;;;;;11.20;60.01;100384.78;5060010;28;20029;-76
2023/05/04 06:21:48;;;;;;;7.83;4.03;;;;;;;11.32;59.55;100379.19;5059834;28;20718;-76
2023/05/04 06:24:13;;;;;;;10.30;4.25;;;;;;;11.47;59.22;100380.44;5059372;28;20314;-76
2023/05/04 06:26:38;;;;;;;8.27;3.58;;;;;;;11.47;58.17;100374.97;5059670;28;20033;-76
2023/05/04 06:29:03;;;;;;;6.87;2.87;;;;;;;11.61;58.68;100374.59;5058752;28;20474;-76
2023/05/04 06:31:29;;;;;;;8.00;3.85;;;;;;;11.67;58.09;100370.84;5060334;28;20265;-76
2023/05/04 06:33:54;;;;;;;8.90;3.77;;;;;;;11.76;58.47;100373.91;5059032;28;20539;-76
2023/05/04 06:36:20;;;;;;;11.23;4.65;;;;;;;11.74;58.15;100381.53;5059824;28;20253;-76
2023/05/04 06:38:45;;;;;;;13.75;4.07;;;;;;;11.88;58.44;100388.25;5059776;28;20039;-76
2023/05/04 06:41:10;;;;;;;11.60;4.78;;;;;;;12.01;59.48;100387.00;5059150;28;20056;-76
2023/05/04 06:43:37;;;;;;;13.15;6.75;;;;;;;12.07;61.08;100384.31;5060169;28;20056;-76
2023/05/04 06:46:03;;;;;;;16.50;6.72;;;;;;;12.07;62.27;100378.84;5059725;28;20040;-76
2023/05/04 06:48:29;;;;;;;15.00;6.90;;;;;;;12.01;62.29;100370.59;5058732;28;20036;-76
2023/05/04 06:50:55;;;;;;;15.57;7.45;;;;;;;11.96;63.34;100376.00;5059786;28;20075;-76
2023/05/04 06:53:21;;;;;;;9.80;6.15;;;;;;;11.96;62.93;100377.94;5059369;28;20040;-76
2023/05/04 06:55:46;;;;;;;15.82;7.43;;;;;;;11.88;62.21;100376.47;5060015;28;20110;-76
2023/05/04 06:58:11;;;;;;;13.07;4.87;;;;;;;11.96;61.84;100373.28;5059178;28;20052;-76
2023/05/04 07:00:37;;;;;;;11.43;4.25;;;;;;;12.08;61.28;100369.56;5058946;28;20573;-76
2023/05/04 07:03:02;;;;;;;8.68;4.25;;;;;;;12.16;60.67;100366.41;5059219;28;20419;-76
2023/05/04 07:05:28;;;;;;;11.07;5.13;;;;;;;12.25;61.05;100381.22;5058039;28;20036;-76
2023/05/04 07:07:53;;;;;;;13.20;5.60;;;;;;;12.26;60.73;100371.91;5059695;28;20032;-76
2023/05/04 07:10:18;;;;;;;9.10;4.60;;;;;;;12.31;60.82;100378.50;5058808;28;20033;-77
2023/05/04 07:12:44;;;;;;;8.57;4.07;;;;;;;12.35;60.71;100369.53;5060052;28;20272;-76
2023/05/04 07:15:10;;;;;;;9.15;4.80;;;;;;;12.43;60.63;100375.59;5058302;28;20273;-75
2023/05/04 07:17:36;;;;;;;9.98;4.55;;;;;;;12.45;61.25;100370.69;5057819;28;20020;-76
2023/05/04 07:20:05;;;;;;;19.77;5.40;;;;;;;12.47;60.89;100365.78;5058568;28;20120;-76
2023/05/04 07:22:31;;;;;;;7.85;3.45;;;;;;;12.55;60.63;100368.03;5059677;28;20036;-76
2023/05/04 07:24:57;;;;;;;11.73;3.47;;;;;;;12.62;60.93;100367.81;5058816;28;20036;-76
2023/05/04 07:27:22;;;;;;;11.30;4.05;;;;;;;12.68;60.35;100361.28;5061092;28;20071;-77
2023/05/04 07:29:49;;;;;;;13.05;5.65;;;;;;;12.77;60.45;100363.53;5062993;28;20032;-76
2023/05/04 07:32:15;;;;;;;10.88;4.43;;;;;;;12.81;60.43;100359.16;5062627;28;20060;-76
2023/05/04 07:34:40;;;;;;;10.88;3.20;;;;;;;12.92;59.78;100365.50;5062481;28;20048;-76
2023/05/04 07:37:06;;;;;;;8.35;3.97;;;;;;;12.99;59.47;100354.31;5063202;28;20116;-76
2023/05/04 07:39:34;;;;;;;11.63;3.60;;;;;;;13.11;58.37;100354.09;5063061;28;20081;-76
2023/05/04 07:42:02;;;;;;;7.47;3.40;;;;;;;13.18;58.57;100355.50;5062622;28;20419;-76
2023/05/04 07:44:27;;;;;;;6.75;3.13;;;;;;;13.19;58.56;100351.69;5062224;28;20120;-76
2023/05/04 07:46:52;;;;;;;9.23;3.90;;;;;;;13.25;58.52;100340.72;5063716;28;20847;-76
2023/05/04 07:49:18;;;;;;;11.07;4.30;;;;;;;13.44;58.21;100349.28;5063505;28;20264;-76
2023/05/04 07:51:43;;;;;;;6.83;3.33;;;;;;;13.52;57.64;100345.19;5062441;28;20896;-76
2023/05/04 07:54:08;;;;;;;8.40;3.63;;;;;;;13.50;58.02;100344.66;5061828;28;20261;-76
2023/05/04 07:56:33;;;;;;;17.93;5.40;;;;;;;13.49;58.49;100345.72;5062977;28;20253;-76
2023/05/04 07:58:59;;;;;;;7.53;4.07;;;;;;;13.55;58.27;100347.41;5062504;28;20692;-76
2023/05/04 08:01:24;;;;;;;15.13;4.13;;;;;;;13.59;58.31;100350.44;5062328;28;20031;-77
2023/05/04 08:03:50;;;;;;;9.20;4.00;;;;;;;13.68;58.41;100339.78;5061824;28;20606;-76
2023/05/04 08:06:15;;;;;;;10.77;3.63;;;;;;;13.74;58.17;100341.44;5062790;28;20025;-76
2023/05/04 08:08:40;;;;;;;7.47;3.30;;;;;;;13.82;58.25;100331.84;5062623;28;21464;-76
2023/05/04 08:11:10;;;;;;;5.85;3.17;;;;;;;13.96;57.90;100332.94;5061850;28;20020;-76
2023/05/04 08:13:35;;;;;;;9.40;3.45;;;;;;;14.11;57.71;100323.09;5062480;28;20038;-76
2023/05/04 08:16:00;;;;;;;10.30;3.80;;;;;;;14.19;56.68;100338.16;5061723;28;20044;-76
2023/05/04 08:18:27;;;;;;;9.27;3.27;;;;;;;14.34;56.76;100326.34;5061933;28;20253;-76
2023/05/04 08:20:52;;;;;;;5.97;3.88;;;;;;;14.36;55.87;100329.63;5062482;28;20349;-76
2023/05/04 08:23:17;;;;;;;7.70;3.97;;;;;;;14.44;55.45;100336.50;5062167;28;20662;-76
2023/05/04 08:25:43;;;;;;;9.47;4.13;;;;;;;14.46;55.82;100328.81;5061647;28;20037;-76
2023/05/04 08:28:08;;;;;;;10.13;4.45;;;;;;;14.46;56.01;100323.31;5062176;28;20631;-76
2023/05/04 08:30:33;;;;;;;7.13;2.93;;;;;;;14.47;56.46;100319.47;5062393;28;20063;-76
2023/05/04 08:32:59;;;;;;;7.30;2.88;;;;;;;14.54;56.20;100319.19;5061636;28;20251;-76
2023/05/04 08:35:26;;;;;;;8.07;3.72;;;;;;;14.72;55.35;100315.03;5061236;28;20093;-76
2023/05/04 08:37:51;;;;;;;8.57;4.13;;;;;;;14.82;54.77;100316.91;5061308;28;20024;-76
2023/05/04 08:40:18;;;;;;;6.82;2.85;;;;;;;14.92;54.93;100313.31;5062152;28;20106;-76
2023/05/04 08:42:46;;;;;;;7.75;3.22;;;;;;;15.04;55.04;100316.56;5062591;28;20452;-76
2023/05/04 08:45:13;;;;;;;11.20;3.80;;;;;;;15.21;54.88;100304.41;5061134;28;20032;-76
2023/05/04 08:47:41;;;;;;;7.75;4.20;;;;;;;15.16;54.77;100301.69;5062266;28;20040;-76
2023/05/04 08:50:07;;;;;;;8.30;3.47;;;;;;;15.32;54.55;100298.84;5061681;28;20028;-76
2023/05/04 08:52:34;;;;;;;8.05;4.05;;;;;;;15.42;54.41;100296.03;5061816;28;20032;-76
2023/05/04 08:55:00;;;;;;;9.57;3.47;;;;;;;15.50;54.29;100289.94;5060093;28;20044;-76
2023/05/04 08:57:26;;;;;;;5.78;3.08;;;;;;;15.60;54.50;100293.75;5061886;28;20032;-76
2023/05/04 08:59:54;;;;;;;11.25;3.50;;;;;;;15.64;54.52;100294.81;5061655;28;20034;-76
2023/05/04 09:02:21;;;;;;;10.38;4.53;;;;;;;15.63;54.52;100287.66;5061105;28;20115;-76
2023/05/04 09:04:47;;;;;;;6.93;3.28;;;;;;;15.63;54.26;100293.16;5061031;28;20033;-77
2023/05/04 09:07:13;;;;;;;6.63;3.08;;;;;;;15.82;54.59;100290.53;5061569;28;20025;-76
2023/05/04 09:09:38;;;;;;;11.07;3.95;;;;;;;15.97;54.08;100291.50;5061238;28;20054;-76
2023/05/04 09:12:04;;;;;;;7.82;3.90;;;;;;;15.97;53.90;100297.81;5060941;28;20059;-76
2023/05/04 09:14:33;;;;;;;7.93;3.60;;;;;;;16.02;52.83;100279.66;5061402;28;20512;-77
2023/05/04 09:17:00;;;;;;;8.60;3.13;;;;;;;16.08;52.63;100276.59;5061211;28;20062;-76
2023/05/04 09:19:32;;;;;;;6.55;3.13;;;;;;;16.21;52.61;100280.56;5061221;28;20038;-76
2023/05/04 09:21:59;;;;;;;7.47;3.40;;;;;;;16.37;52.27;100276.88;5061032;28;20036;-77
2023/05/04 09:24:26;;;;;;;6.95;4.20;;;;;;;16.38;52.47;100284.81;5061142;28;20036;-75
2023/05/04 09:26:51;;;;;;;7.55;4.38;;;;;;;16.63;51.93;100282.91;5060682;28;21187;-74
2023/05/04 09:29:17;;;;;;;6.93;3.22;;;;;;;16.80;50.75;100281.59;5060884;28;20036;-75
2023/05/04 09:31:48;;;;;;;6.70;3.42;;;;;;;16.91;50.16;100283.09;5060752;28;20036;-75
2023/05/04 09:34:14;;;;;;;6.68;3.22;;;;;;;16.92;49.71;100283.94;5059385;28;20488;-75
2023/05/04 09:36:40;;;;;;;6.82;3.53;;;;;;;16.89;48.85;100281.75;5061234;28;20032;-76
2023/05/04 09:39:13;;;;;;;6.32;3.50;;;;;;;16.78;48.19;100278.34;5060725;28;20024;-75
2023/05/04 09:41:39;;;;;;;6.43;3.72;;;;;;;17.01;47.73;100270.31;5060742;28;20049;-74
2023/05/04 09:44:05;;;;;;;8.63;3.30;;;;;;;17.18;48.59;100277.28;5060866;28;20398;-74
2023/05/04 09:46:30;;;;;;;7.22;3.08;;;;;;;17.21;48.13;100265.66;5060897;28;20033;-75
2023/05/04 09:48:56;;;;;;;5.57;2.75;;;;;;;17.29;47.95;100262.22;5060324;28;20029;-75
2023/05/04 09:51:24;;;;;;;9.38;3.85;;;;;;;17.36;47.30;100253.59;5060031;28;20035;-75
2023/05/04 09:53:50;;;;;;;5.90;2.97;;;;;;;17.42;48.05;100246.06;5060480;28;20035;-74
2023/05/04 09:56:45;;;;;;;7.85;3.38;;;;;;;17.52;47.83;100236.81;5060308;28;20037;-74
2023/05/04 09:59:11;;;;;;;8.35;3.20;;;;;;;17.89;45.68;100235.09;5058638;28;20128;-75
2023/05/04 10:01:36;;;;;;;6.55;3.47;;;;;;;18.09;45.61;100228.41;5060427;28;20067;-74
2023/05/04 10:04:03;;;;;;;4.82;2.92;;;;;;;18.20;44.92;100236.50;5059659;28;20466;-75
2023/05/04 10:06:31;;;;;;;12.82;3.90;;;;;;;18.31;43.73;100229.66;5060034;28;20643;-75
2023/05/04 10:08:59;;;;;;;5.18;2.78;;;;;;;18.39;44.37;100225.38;5060290;28;20189;-75
2023/05/04 10:11:25;;;;;;;6.13;2.92;;;;;;;18.48;44.08;100221.88;5060505;28;20033;-75
2023/05/04 10:13:53;;;;;;;5.53;2.83;;;;;;;18.47;43.79;100221.06;5059663;28;20029;-75
2023/05/04 10:17:01;;;;;;;6.45;2.63;;;;;;;18.63;43.20;100218.00;5059904;28;20046;-74
2023/05/04 10:19:38;;;;;;;5.70;2.42;;;;;;;18.73;42.85;100212.25;5060923;28;20042;-75
2023/05/04 10:22:46;;;;;;;5.75;2.88;;;;;;;18.59;41.83;100217.00;5060158;28;20473;-75
2023/05/04 10:25:21;;;;;;;6.35;2.90;;;;;;;18.61;42.52;100215.53;5058705;28;20037;-75
2023/05/04 10:28:06;;;;;;;6.78;3.40;;;;;;;18.77;41.45;100196.69;5061087;28;20040;-75
2023/05/04 10:30:31;;;;;;;6.47;3.35;;;;;;;18.82;42.13;100197.72;5059437;28;20736;-75
2023/05/04 10:32:57;;;;;;;11.13;3.53;;;;;;;18.96;42.26;100192.16;5059294;28;20036;-76
2023/05/04 10:35:23;;;;;;;5.28;2.40;;;;;;;19.06;41.52;100191.91;5059250;28;20731;-77
2023/05/04 10:37:53;;;;;;;5.45;2.83;;;;;;;19.22;42.13;100194.34;5060612;28;20020;-77
2023/05/04 10:40:38;;;;;;;4.72;3.15;;;;;;;19.29;41.90;100182.84;5059596;28;20032;-76
2023/05/04 10:43:06;;;;;;;5.15;2.65;;;;;;;19.39;40.77;100188.13;5059267;28;20048;-74
2023/05/04 10:45:36;;;;;;;5.55;2.53;;;;;;;19.40;40.06;100181.47;5059227;28;20043;-74
2023/05/04 10:48:03;;;;;;;5.22;2.72;;;;;;;19.64;40.10;100172.03;5057921;28;20402;-75
2023/05/04 10:50:39;;;;;;;8.35;2.92;;;;;;;19.71;39.95;100168.78;5059157;28;20618;-75
2023/05/04 10:53:04;;;;;;;7.32;3.38;;;;;;;19.82;40.07;100167.41;5059786;28;20036;-76
2023/05/04 10:55:38;;;;;;;9.20;2.87;;;;;;;19.87;39.25;100163.66;5059366;28;20055;-77
2023/05/04 10:58:04;;;;;;;10.25;3.50;;;;;;;19.91;38.54;100167.44;5058895;28;20028;-76
2023/05/04 11:00:55;;;;;;;7.95;3.05;;;;;;;19.97;38.70;100153.47;5060132;28;20029;-76
2023/05/04 11:03:23;;;;;;;5.97;2.85;;;;;;;20.06;40.00;100146.00;5057096;28;20067;-76
2023/05/04 11:05:51;;;;;;;5.75;3.17;;;;;;;20.08;40.04;100152.06;5059243;28;20753;-76
2023/05/04 11:08:20;;;;;;;5.25;3.10;;;;;;;20.14;39.94;100139.72;5059028;28;20047;-76
2023/05/04 11:10:47;;;;;;;6.40;2.55;;;;;;;20.23;40.20;100134.22;5058957;28;20033;-76
2023/05/04 11:13:13;;;;;;;4.82;2.50;;;;;;;20.48;39.80;100139.31;5057888;28;20437;-77
2023/05/04 11:15:46;;;;;;;6.45;2.38;;;;;;;20.63;39.11;100136.06;5058662;28;20127;-77
2023/05/04 11:18:11;;;;;;;5.55;2.45;;;;;;;20.72;37.54;100129.72;5059643;28;20029;-76
2023/05/04 11:20:37;;;;;;;4.97;2.60;;;;;;;20.69;37.46;100122.88;5059582;28;20036;-76